sensor_id;sensor_type;location;lat;lon;timestamp;P1;durP1;ratioP1;P2;durP2;ratioP2
41233;SDS011;26968;42.686;23.352;2023-03-09T00:01:51;27.38;;;11.68;;
41233;SDS011;26968;42.686;23.352;2023-03-09T00:04:18;22.30;;;11.52;;
41233;SDS011;26968;42.686;23.352;2023-03-09T00:06:44;26.48;;;12.13;;
41233;SDS011;26968;42.686;23.352;2023-03-09T00:09:10;26.58;;;11.88;;
41233;SDS011;26968;42.686;23.352;2023-03-09T00:11:41;23.15;;;10.35;;
41233;SDS011;26968;42.686;23.352;2023-03-09T00:14:08;28.35;;;12.13;;
41233;SDS011;26968;42.686;23.352;2023-03-09T00:16:34;23.27;;;10.15;;
41233;SDS011;26968;42.686;23.352;2023-03-09T00:19:01;28.23;;;10.15;;
41233;SDS011;26968;42.686;23.352;2023-03-09T00:21:27;21.10;;;9.52;;
41233;SDS011;26968;42.686;23.352;2023-03-09T00:26:26;21.92;;;9.20;;
41233;SDS011;26968;42.686;23.352;2023-03-09T00:28:52;20.70;;;9.88;;
41233;SDS011;26968;42.686;23.352;2023-03-09T00:31:17;21.08;;;9.98;;
41233;SDS011;26968;42.686;23.352;2023-03-09T00:33:43;19.95;;;9.48;;
41233;SDS011;26968;42.686;23.352;2023-03-09T00:36:15;22.25;;;9.52;;
41233;SDS011;26968;42.686;23.352;2023-03-09T00:38:42;19.17;;;9.35;;
41233;SDS011;26968;42.686;23.352;2023-03-09T00:41:08;18.33;;;10.20;;
41233;SDS011;26968;42.686;23.352;2023-03-09T00:43:33;20.63;;;8.95;;
41233;SDS011;26968;42.686;23.352;2023-03-09T00:45:59;22.30;;;10.00;;
41233;SDS011;26968;42.686;23.352;2023-03-09T00:48:26;19.63;;;9.48;;
41233;SDS011;26968;42.686;23.352;2023-03-09T00:50:51;16.42;;;8.50;;
41233;SDS011;26968;42.686;23.352;2023-03-09T00:53:16;22.85;;;9.27;;
41233;SDS011;26968;42.686;23.352;2023-03-09T00:55:42;18.10;;;8.73;;
41233;SDS011;26968;42.686;23.352;2023-03-09T00:58:07;26.75;;;8.90;;
41233;SDS011;26968;42.686;23.352;2023-03-09T01:00:34;18.65;;;8.20;;
41233;SDS011;26968;42.686;23.352;2023-03-09T01:02:59;21.40;;;9.68;;
41233;SDS011;26968;42.686;23.352;2023-03-09T01:05:25;20.48;;;10.20;;
41233;SDS011;26968;42.686;23.352;2023-03-09T01:07:51;17.17;;;8.30;;
41233;SDS011;26968;42.686;23.352;2023-03-09T01:10:17;18.30;;;7.90;;
41233;SDS011;26968;42.686;23.352;2023-03-09T01:12:42;17.77;;;8.20;;
41233;SDS011;26968;42.686;23.352;2023-03-09T01:15:09;16.75;;;7.45;;
41233;SDS011;26968;42.686;23.352;2023-03-09T01:17:36;17.90;;;8.75;;
41233;SDS011;26968;42.686;23.352;2023-03-09T01:20:02;16.63;;;7.60;;
41233;SDS011;26968;42.686;23.352;2023-03-09T01:22:29;26.30;;;8.07;;
41233;SDS011;26968;42.686;23.352;2023-03-09T01:24:54;17.83;;;7.65;;
41233;SDS011;26968;42.686;23.352;2023-03-09T01:27:19;21.52;;;7.95;;
41233;SDS011;26968;42.686;23.352;2023-03-09T01:29:45;16.38;;;7.68;;
41233;SDS011;26968;42.686;23.352;2023-03-09T01:32:10;21.35;;;7.60;;
41233;SDS011;26968;42.686;23.352;2023-03-09T01:34:36;17.77;;;7.88;;
41233;SDS011;26968;42.686;23.352;2023-03-09T01:37:01;19.70;;;9.07;;
41233;SDS011;26968;42.686;23.352;2023-03-09T01:39:27;22.65;;;7.95;;
41233;SDS011;26968;42.686;23.352;2023-03-09T01:41:52;18.80;;;8.57;;
41233;SDS011;26968;42.686;23.352;2023-03-09T01:44:18;19.25;;;8.00;;
41233;SDS011;26968;42.686;23.352;2023-03-09T01:46:53;24.55;;;8.57;;
41233;SDS011;26968;42.686;23.352;2023-03-09T01:49:28;18.88;;;8.65;;
41233;SDS011;26968;42.686;23.352;2023-03-09T01:54:45;18.23;;;7.70;;
41233;SDS011;26968;42.686;23.352;2023-03-09T01:57:29;21.33;;;8.43;;
41233;SDS011;26968;42.686;23.352;2023-03-09T01:59:57;20.70;;;8.65;;
41233;SDS011;26968;42.686;23.352;2023-03-09T02:02:31;15.93;;;7.57;;
41233;SDS011;26968;42.686;23.352;2023-03-09T02:05:00;14.75;;;7.22;;
41233;SDS011;26968;42.686;23.352;2023-03-09T02:07:29;16.65;;;7.82;;
41233;SDS011;26968;42.686;23.352;2023-03-09T02:10:01;19.90;;;8.60;;
41233;SDS011;26968;42.686;23.352;2023-03-09T02:12:27;18.42;;;8.02;;
41233;SDS011;26968;42.686;23.352;2023-03-09T02:14:54;22.58;;;8.73;;
41233;SDS011;26968;42.686;23.352;2023-03-09T02:17:19;17.73;;;7.82;;
41233;SDS011;26968;42.686;23.352;2023-03-09T02:22:36;18.50;;;7.70;;
41233;SDS011;26968;42.686;23.352;2023-03-09T02:27:29;13.32;;;7.00;;
41233;SDS011;26968;42.686;23.352;2023-03-09T02:29:55;16.92;;;6.85;;
41233;SDS011;26968;42.686;23.352;2023-03-09T02:32:22;13.48;;;6.45;;
41233;SDS011;26968;42.686;23.352;2023-03-09T02:34:48;22.40;;;7.88;;
41233;SDS011;26968;42.686;23.352;2023-03-09T02:37:25;20.10;;;7.88;;
41233;SDS011;26968;42.686;23.352;2023-03-09T02:39:59;13.73;;;7.13;;
41233;SDS011;26968;42.686;23.352;2023-03-09T02:42:29;11.23;;;6.28;;
41233;SDS011;26968;42.686;23.352;2023-03-09T02:44:55;17.60;;;6.53;;
41233;SDS011;26968;42.686;23.352;2023-03-09T02:47:22;12.70;;;6.32;;
41233;SDS011;26968;42.686;23.352;2023-03-09T02:49:48;14.88;;;6.30;;
41233;SDS011;26968;42.686;23.352;2023-03-09T02:52:14;12.90;;;6.05;;
41233;SDS011;26968;42.686;23.352;2023-03-09T02:54:39;14.80;;;6.88;;
41233;SDS011;26968;42.686;23.352;2023-03-09T02:57:05;15.55;;;6.40;;
41233;SDS011;26968;42.686;23.352;2023-03-09T02:59:31;15.50;;;6.07;;
41233;SDS011;26968;42.686;23.352;2023-03-09T03:01:57;12.32;;;5.97;;
41233;SDS011;26968;42.686;23.352;2023-03-09T03:04:22;12.85;;;6.43;;
41233;SDS011;26968;42.686;23.352;2023-03-09T03:06:48;12.23;;;6.53;;
41233;SDS011;26968;42.686;23.352;2023-03-09T03:09:13;10.52;;;5.88;;
41233;SDS011;26968;42.686;23.352;2023-03-09T03:11:38;12.65;;;6.07;;
41233;SDS011;26968;42.686;23.352;2023-03-09T03:14:04;16.10;;;6.93;;
41233;SDS011;26968;42.686;23.352;2023-03-09T03:16:29;20.70;;;6.65;;
41233;SDS011;26968;42.686;23.352;2023-03-09T03:18:55;24.15;;;7.95;;
41233;SDS011;26968;42.686;23.352;2023-03-09T03:21:20;13.65;;;6.45;;
41233;SDS011;26968;42.686;23.352;2023-03-09T03:23:46;16.00;;;6.78;;
41233;SDS011;26968;42.686;23.352;2023-03-09T03:26:11;14.77;;;5.78;;
41233;SDS011;26968;42.686;23.352;2023-03-09T03:28:37;13.60;;;6.03;;
41233;SDS011;26968;42.686;23.352;2023-03-09T03:31:03;14.32;;;6.03;;
41233;SDS011;26968;42.686;23.352;2023-03-09T03:33:29;17.55;;;6.55;;
41233;SDS011;26968;42.686;23.352;2023-03-09T03:35:55;17.10;;;6.25;;
41233;SDS011;26968;42.686;23.352;2023-03-09T03:38:21;9.57;;;5.82;;
41233;SDS011;26968;42.686;23.352;2023-03-09T03:40:47;13.50;;;5.97;;
41233;SDS011;26968;42.686;23.352;2023-03-09T03:43:12;18.45;;;6.15;;
41233;SDS011;26968;42.686;23.352;2023-03-09T03:45:38;14.88;;;6.60;;
41233;SDS011;26968;42.686;23.352;2023-03-09T03:48:03;15.35;;;5.97;;
41233;SDS011;26968;42.686;23.352;2023-03-09T03:50:29;14.02;;;5.90;;
41233;SDS011;26968;42.686;23.352;2023-03-09T03:52:54;18.60;;;6.72;;
41233;SDS011;26968;42.686;23.352;2023-03-09T03:55:20;18.10;;;6.43;;
41233;SDS011;26968;42.686;23.352;2023-03-09T03:57:45;15.82;;;5.30;;
41233;SDS011;26968;42.686;23.352;2023-03-09T04:00:11;15.68;;;5.32;;
41233;SDS011;26968;42.686;23.352;2023-03-09T04:02:37;13.63;;;5.68;;
41233;SDS011;26968;42.686;23.352;2023-03-09T04:05:03;16.45;;;5.68;;
41233;SDS011;26968;42.686;23.352;2023-03-09T04:07:29;19.35;;;6.22;;
41233;SDS011;26968;42.686;23.352;2023-03-09T04:09:55;16.48;;;5.95;;
41233;SDS011;26968;42.686;23.352;2023-03-09T04:12:20;18.05;;;6.45;;
41233;SDS011;26968;42.686;23.352;2023-03-09T04:14:46;14.13;;;5.25;;
41233;SDS011;26968;42.686;23.352;2023-03-09T04:17:11;19.23;;;6.57;;
41233;SDS011;26968;42.686;23.352;2023-03-09T04:19:36;15.35;;;5.85;;
41233;SDS011;26968;42.686;23.352;2023-03-09T04:22:02;13.02;;;5.50;;
41233;SDS011;26968;42.686;23.352;2023-03-09T04:24:28;11.70;;;5.53;;
41233;SDS011;26968;42.686;23.352;2023-03-09T04:26:53;14.77;;;6.03;;
41233;SDS011;26968;42.686;23.352;2023-03-09T04:29:19;10.48;;;5.00;;
41233;SDS011;26968;42.686;23.352;2023-03-09T04:31:45;13.18;;;5.55;;
41233;SDS011;26968;42.686;23.352;2023-03-09T04:34:11;21.35;;;6.32;;
41233;SDS011;26968;42.686;23.352;2023-03-09T04:36:36;17.73;;;6.75;;
41233;SDS011;26968;42.686;23.352;2023-03-09T04:39:02;20.55;;;6.55;;
41233;SDS011;26968;42.686;23.352;2023-03-09T04:41:29;12.55;;;5.85;;
41233;SDS011;26968;42.686;23.352;2023-03-09T04:43:55;15.15;;;6.50;;
41233;SDS011;26968;42.686;23.352;2023-03-09T04:46:21;15.35;;;6.20;;
41233;SDS011;26968;42.686;23.352;2023-03-09T04:48:46;30.67;;;8.00;;
41233;SDS011;26968;42.686;23.352;2023-03-09T04:51:12;22.95;;;7.18;;
41233;SDS011;26968;42.686;23.352;2023-03-09T04:53:37;20.42;;;7.68;;
41233;SDS011;26968;42.686;23.352;2023-03-09T04:56:03;18.67;;;7.68;;
41233;SDS011;26968;42.686;23.352;2023-03-09T04:58:29;17.67;;;7.63;;
41233;SDS011;26968;42.686;23.352;2023-03-09T05:00:54;21.17;;;6.75;;
41233;SDS011;26968;42.686;23.352;2023-03-09T05:03:20;15.13;;;6.88;;
41233;SDS011;26968;42.686;23.352;2023-03-09T05:05:45;17.42;;;6.75;;
41233;SDS011;26968;42.686;23.352;2023-03-09T05:08:10;23.95;;;7.22;;
41233;SDS011;26968;42.686;23.352;2023-03-09T05:10:36;31.42;;;8.88;;
41233;SDS011;26968;42.686;23.352;2023-03-09T05:13:02;34.63;;;9.18;;
41233;SDS011;26968;42.686;23.352;2023-03-09T05:15:27;27.83;;;8.05;;
41233;SDS011;26968;42.686;23.352;2023-03-09T05:17:52;29.13;;;7.90;;
41233;SDS011;26968;42.686;23.352;2023-03-09T05:20:18;29.98;;;8.85;;
41233;SDS011;26968;42.686;23.352;2023-03-09T05:22:43;23.17;;;8.57;;
41233;SDS011;26968;42.686;23.352;2023-03-09T05:25:09;26.45;;;10.35;;
41233;SDS011;26968;42.686;23.352;2023-03-09T05:27:34;51.00;;;15.48;;
41233;SDS011;26968;42.686;23.352;2023-03-09T05:30:05;44.65;;;18.10;;
41233;SDS011;26968;42.686;23.352;2023-03-09T05:32:31;53.70;;;18.38;;
41233;SDS011;26968;42.686;23.352;2023-03-09T05:34:56;49.83;;;15.98;;
41233;SDS011;26968;42.686;23.352;2023-03-09T05:37:23;45.45;;;16.50;;
41233;SDS011;26968;42.686;23.352;2023-03-09T05:39:48;65.82;;;18.83;;
41233;SDS011;26968;42.686;23.352;2023-03-09T05:42:15;49.78;;;18.85;;
41233;SDS011;26968;42.686;23.352;2023-03-09T05:44:40;47.90;;;18.88;;
41233;SDS011;26968;42.686;23.352;2023-03-09T05:47:06;44.25;;;18.08;;
41233;SDS011;26968;42.686;23.352;2023-03-09T05:49:31;54.20;;;18.88;;
41233;SDS011;26968;42.686;23.352;2023-03-09T05:51:58;55.03;;;19.58;;
41233;SDS011;26968;42.686;23.352;2023-03-09T05:54:24;58.50;;;19.75;;
41233;SDS011;26968;42.686;23.352;2023-03-09T05:56:52;45.13;;;19.13;;
41233;SDS011;26968;42.686;23.352;2023-03-09T05:59:18;48.13;;;20.02;;
41233;SDS011;26968;42.686;23.352;2023-03-09T06:01:46;52.70;;;18.45;;
41233;SDS011;26968;42.686;23.352;2023-03-09T06:04:11;41.80;;;16.63;;
41233;SDS011;26968;42.686;23.352;2023-03-09T06:06:36;63.90;;;19.02;;
41233;SDS011;26968;42.686;23.352;2023-03-09T06:09:02;58.33;;;21.67;;
41233;SDS011;26968;42.686;23.352;2023-03-09T06:11:30;33.80;;;16.60;;
41233;SDS011;26968;42.686;23.352;2023-03-09T06:13:56;38.75;;;17.67;;
41233;SDS011;26968;42.686;23.352;2023-03-09T06:16:22;34.50;;;14.82;;
41233;SDS011;26968;42.686;23.352;2023-03-09T06:18:48;33.38;;;15.18;;
41233;SDS011;26968;42.686;23.352;2023-03-09T06:21:14;29.35;;;13.73;;
41233;SDS011;26968;42.686;23.352;2023-03-09T06:23:39;34.35;;;15.20;;
41233;SDS011;26968;42.686;23.352;2023-03-09T06:26:06;35.13;;;16.88;;
41233;SDS011;26968;42.686;23.352;2023-03-09T06:28:33;40.90;;;14.68;;
41233;SDS011;26968;42.686;23.352;2023-03-09T06:30:59;31.75;;;14.52;;
41233;SDS011;26968;42.686;23.352;2023-03-09T06:33:25;38.10;;;14.05;;
41233;SDS011;26968;42.686;23.352;2023-03-09T06:35:50;35.70;;;15.73;;
41233;SDS011;26968;42.686;23.352;2023-03-09T06:38:16;34.72;;;14.93;;
41233;SDS011;26968;42.686;23.352;2023-03-09T06:40:42;36.92;;;13.77;;
41233;SDS011;26968;42.686;23.352;2023-03-09T06:43:07;39.42;;;12.10;;
41233;SDS011;26968;42.686;23.352;2023-03-09T06:45:33;23.00;;;11.65;;
41233;SDS011;26968;42.686;23.352;2023-03-09T06:47:58;23.77;;;9.80;;
41233;SDS011;26968;42.686;23.352;2023-03-09T06:50:24;20.52;;;9.05;;
41233;SDS011;26968;42.686;23.352;2023-03-09T06:52:50;25.38;;;8.85;;
41233;SDS011;26968;42.686;23.352;2023-03-09T06:55:17;16.33;;;7.80;;
41233;SDS011;26968;42.686;23.352;2023-03-09T06:57:43;22.33;;;7.95;;
41233;SDS011;26968;42.686;23.352;2023-03-09T07:00:08;15.85;;;6.53;;
41233;SDS011;26968;42.686;23.352;2023-03-09T07:02:36;14.45;;;6.78;;
41233;SDS011;26968;42.686;23.352;2023-03-09T07:05:03;20.33;;;6.85;;
41233;SDS011;26968;42.686;23.352;2023-03-09T07:07:29;17.50;;;7.88;;
41233;SDS011;26968;42.686;23.352;2023-03-09T07:09:54;14.50;;;6.85;;
41233;SDS011;26968;42.686;23.352;2023-03-09T07:12:19;18.13;;;7.20;;
41233;SDS011;26968;42.686;23.352;2023-03-09T07:14:45;25.75;;;7.97;;
41233;SDS011;26968;42.686;23.352;2023-03-09T07:17:11;16.45;;;7.43;;
41233;SDS011;26968;42.686;23.352;2023-03-09T07:19:39;14.30;;;6.80;;
41233;SDS011;26968;42.686;23.352;2023-03-09T07:22:05;15.68;;;6.05;;
41233;SDS011;26968;42.686;23.352;2023-03-09T07:24:35;13.15;;;6.40;;
41233;SDS011;26968;42.686;23.352;2023-03-09T07:27:01;17.88;;;6.60;;
41233;SDS011;26968;42.686;23.352;2023-03-09T07:29:26;18.25;;;6.70;;
41233;SDS011;26968;42.686;23.352;2023-03-09T07:31:52;18.80;;;8.80;;
41233;SDS011;26968;42.686;23.352;2023-03-09T07:34:17;30.30;;;11.82;;
41233;SDS011;26968;42.686;23.352;2023-03-09T07:36:43;24.33;;;11.40;;
41233;SDS011;26968;42.686;23.352;2023-03-09T07:39:08;23.70;;;11.48;;
41233;SDS011;26968;42.686;23.352;2023-03-09T07:41:34;28.00;;;12.95;;
41233;SDS011;26968;42.686;23.352;2023-03-09T07:43:59;20.33;;;11.18;;
41233;SDS011;26968;42.686;23.352;2023-03-09T07:46:24;26.50;;;13.00;;
41233;SDS011;26968;42.686;23.352;2023-03-09T07:48:50;30.95;;;12.88;;
41233;SDS011;26968;42.686;23.352;2023-03-09T07:51:16;30.45;;;11.02;;
41233;SDS011;26968;42.686;23.352;2023-03-09T07:53:43;21.13;;;11.18;;
41233;SDS011;26968;42.686;23.352;2023-03-09T07:56:08;27.85;;;11.23;;
41233;SDS011;26968;42.686;23.352;2023-03-09T07:58:35;25.20;;;10.65;;
41233;SDS011;26968;42.686;23.352;2023-03-09T08:01:02;21.65;;;9.82;;
41233;SDS011;26968;42.686;23.352;2023-03-09T08:03:29;22.40;;;9.25;;
41233;SDS011;26968;42.686;23.352;2023-03-09T08:05:54;24.60;;;9.55;;
41233;SDS011;26968;42.686;23.352;2023-03-09T08:08:24;23.63;;;9.20;;
41233;SDS011;26968;42.686;23.352;2023-03-09T08:10:51;20.90;;;9.65;;
41233;SDS011;26968;42.686;23.352;2023-03-09T08:13:17;16.67;;;8.57;;
41233;SDS011;26968;42.686;23.352;2023-03-09T08:15:43;16.38;;;9.07;;
41233;SDS011;26968;42.686;23.352;2023-03-09T08:18:08;22.70;;;9.68;;
41233;SDS011;26968;42.686;23.352;2023-03-09T08:20:34;25.67;;;10.20;;
41233;SDS011;26968;42.686;23.352;2023-03-09T08:23:01;26.20;;;9.27;;
41233;SDS011;26968;42.686;23.352;2023-03-09T08:25:26;23.15;;;8.70;;
41233;SDS011;26968;42.686;23.352;2023-03-09T08:27:52;20.55;;;6.60;;
41233;SDS011;26968;42.686;23.352;2023-03-09T08:30:18;16.45;;;7.15;;
41233;SDS011;26968;42.686;23.352;2023-03-09T08:32:46;24.08;;;7.72;;
41233;SDS011;26968;42.686;23.352;2023-03-09T08:35:13;22.73;;;7.15;;
41233;SDS011;26968;42.686;23.352;2023-03-09T08:37:39;18.70;;;7.78;;
41233;SDS011;26968;42.686;23.352;2023-03-09T08:40:05;24.27;;;8.02;;
41233;SDS011;26968;42.686;23.352;2023-03-09T08:42:32;26.50;;;8.77;;
41233;SDS011;26968;42.686;23.352;2023-03-09T08:44:58;21.05;;;8.20;;
41233;SDS011;26968;42.686;23.352;2023-03-09T08:47:23;24.10;;;7.72;;
41233;SDS011;26968;42.686;23.352;2023-03-09T08:49:49;18.38;;;7.68;;
41233;SDS011;26968;42.686;23.352;2023-03-09T08:52:15;16.65;;;6.93;;
41233;SDS011;26968;42.686;23.352;2023-03-09T08:54:41;14.23;;;7.18;;
41233;SDS011;26968;42.686;23.352;2023-03-09T08:57:06;20.95;;;8.10;;
41233;SDS011;26968;42.686;23.352;2023-03-09T08:59:32;33.80;;;7.95;;
41233;SDS011;26968;42.686;23.352;2023-03-09T09:01:57;20.95;;;7.70;;
41233;SDS011;26968;42.686;23.352;2023-03-09T09:04:23;16.10;;;7.38;;
41233;SDS011;26968;42.686;23.352;2023-03-09T09:06:49;22.25;;;8.07;;
41233;SDS011;26968;42.686;23.352;2023-03-09T09:09:14;17.08;;;7.93;;
41233;SDS011;26968;42.686;23.352;2023-03-09T09:11:40;21.40;;;8.38;;
41233;SDS011;26968;42.686;23.352;2023-03-09T09:14:05;17.65;;;8.18;;
41233;SDS011;26968;42.686;23.352;2023-03-09T09:16:31;16.55;;;7.95;;
41233;SDS011;26968;42.686;23.352;2023-03-09T09:18:56;29.20;;;12.27;;
41233;SDS011;26968;42.686;23.352;2023-03-09T09:21:22;25.42;;;10.75;;
41233;SDS011;26968;42.686;23.352;2023-03-09T09:23:48;20.88;;;8.68;;
41233;SDS011;26968;42.686;23.352;2023-03-09T09:26:14;18.92;;;6.40;;
41233;SDS011;26968;42.686;23.352;2023-03-09T09:28:40;10.82;;;5.30;;
41233;SDS011;26968;42.686;23.352;2023-03-09T09:31:07;21.23;;;6.00;;
41233;SDS011;26968;42.686;23.352;2023-03-09T09:33:37;15.50;;;5.80;;
41233;SDS011;26968;42.686;23.352;2023-03-09T09:36:03;14.07;;;5.65;;
41233;SDS011;26968;42.686;23.352;2023-03-09T09:38:32;16.50;;;5.80;;
41233;SDS011;26968;42.686;23.352;2023-03-09T09:43:44;20.38;;;6.05;;
41233;SDS011;26968;42.686;23.352;2023-03-09T09:46:15;19.45;;;6.78;;
41233;SDS011;26968;42.686;23.352;2023-03-09T09:48:43;22.33;;;6.95;;
41233;SDS011;26968;42.686;23.352;2023-03-09T09:56:46;16.52;;;5.53;;
41233;SDS011;26968;42.686;23.352;2023-03-09T10:04:45;18.60;;;5.78;;
41233;SDS011;26968;42.686;23.352;2023-03-09T10:07:15;17.67;;;5.70;;
41233;SDS011;26968;42.686;23.352;2023-03-09T10:09:42;23.60;;;5.82;;
41233;SDS011;26968;42.686;23.352;2023-03-09T10:12:12;26.85;;;6.10;;
41233;SDS011;26968;42.686;23.352;2023-03-09T10:14:44;23.45;;;6.25;;
41233;SDS011;26968;42.686;23.352;2023-03-09T10:22:46;15.05;;;5.00;;
41233;SDS011;26968;42.686;23.352;2023-03-09T10:25:13;12.45;;;4.82;;
41233;SDS011;26968;42.686;23.352;2023-03-09T10:30:25;9.95;;;5.05;;
41233;SDS011;26968;42.686;23.352;2023-03-09T10:35:44;8.48;;;4.22;;
41233;SDS011;26968;42.686;23.352;2023-03-09T10:38:20;13.05;;;4.10;;
41233;SDS011;26968;42.686;23.352;2023-03-09T10:40:49;14.48;;;4.20;;
41233;SDS011;26968;42.686;23.352;2023-03-09T10:43:19;8.68;;;3.38;;
41233;SDS011;26968;42.686;23.352;2023-03-09T10:45:49;14.15;;;3.90;;
41233;SDS011;26968;42.686;23.352;2023-03-09T10:48:18;8.98;;;4.20;;
41233;SDS011;26968;42.686;23.352;2023-03-09T10:50:57;9.20;;;3.50;;
41233;SDS011;26968;42.686;23.352;2023-03-09T10:53:37;13.02;;;3.40;;
41233;SDS011;26968;42.686;23.352;2023-03-09T10:56:30;7.68;;;3.47;;
41233;SDS011;26968;42.686;23.352;2023-03-09T11:01:43;9.68;;;2.70;;
41233;SDS011;26968;42.686;23.352;2023-03-09T11:09:31;4.80;;;1.65;;
41233;SDS011;26968;42.686;23.352;2023-03-09T11:12:14;5.40;;;1.52;;
41233;SDS011;26968;42.686;23.352;2023-03-09T11:17:31;2.28;;;1.25;;
41233;SDS011;26968;42.686;23.352;2023-03-09T11:31:38;10.55;;;1.48;;
41233;SDS011;26968;42.686;23.352;2023-03-09T11:34:16;7.97;;;1.75;;
41233;SDS011;26968;42.686;23.352;2023-03-09T11:39:20;3.97;;;1.73;;
41233;SDS011;26968;42.686;23.352;2023-03-09T11:41:49;5.47;;;1.35;;
41233;SDS011;26968;42.686;23.352;2023-03-09T11:47:18;4.93;;;1.20;;
41233;SDS011;26968;42.686;23.352;2023-03-09T11:49:51;10.98;;;1.60;;
41233;SDS011;26968;42.686;23.352;2023-03-09T11:52:25;9.23;;;1.98;;
41233;SDS011;26968;42.686;23.352;2023-03-09T11:54:56;1.20;;;0.98;;
41233;SDS011;26968;42.686;23.352;2023-03-09T11:57:26;6.15;;;1.75;;
41233;SDS011;26968;42.686;23.352;2023-03-09T11:59:53;4.15;;;1.55;;
41233;SDS011;26968;42.686;23.352;2023-03-09T12:05:30;4.25;;;1.23;;
41233;SDS011;26968;42.686;23.352;2023-03-09T12:10:59;9.18;;;1.58;;
41233;SDS011;26968;42.686;23.352;2023-03-09T12:13:33;2.50;;;1.25;;
41233;SDS011;26968;42.686;23.352;2023-03-09T12:16:02;3.20;;;1.60;;
41233;SDS011;26968;42.686;23.352;2023-03-09T12:18:32;2.72;;;1.42;;
41233;SDS011;26968;42.686;23.352;2023-03-09T12:21:02;1.88;;;1.30;;
41233;SDS011;26968;42.686;23.352;2023-03-09T12:31:38;4.90;;;1.38;;
41233;SDS011;26968;42.686;23.352;2023-03-09T12:36:34;6.88;;;1.35;;
41233;SDS011;26968;42.686;23.352;2023-03-09T12:58:47;7.18;;;1.55;;
41233;SDS011;26968;42.686;23.352;2023-03-09T13:09:05;3.42;;;1.00;;
41233;SDS011;26968;42.686;23.352;2023-03-09T13:19:54;2.45;;;1.48;;
41233;SDS011;26968;42.686;23.352;2023-03-09T13:22:39;4.35;;;1.50;;
41233;SDS011;26968;42.686;23.352;2023-03-09T13:25:28;2.20;;;1.20;;
41233;SDS011;26968;42.686;23.352;2023-03-09T13:28:04;5.00;;;1.55;;
41233;SDS011;26968;42.686;23.352;2023-03-09T13:30:37;2.15;;;1.00;;
41233;SDS011;26968;42.686;23.352;2023-03-09T13:33:12;2.20;;;1.23;;
41233;SDS011;26968;42.686;23.352;2023-03-09T13:35:47;2.72;;;1.60;;
41233;SDS011;26968;42.686;23.352;2023-03-09T13:40:58;2.40;;;1.10;;
41233;SDS011;26968;42.686;23.352;2023-03-09T13:43:29;1.92;;;1.10;;
41233;SDS011;26968;42.686;23.352;2023-03-09T13:45:58;7.82;;;1.25;;
41233;SDS011;26968;42.686;23.352;2023-03-09T13:48:27;6.03;;;1.27;;
41233;SDS011;26968;42.686;23.352;2023-03-09T13:50:55;3.13;;;1.17;;
41233;SDS011;26968;42.686;23.352;2023-03-09T13:53:36;4.63;;;1.70;;
41233;SDS011;26968;42.686;23.352;2023-03-09T13:56:12;4.28;;;1.15;;
41233;SDS011;26968;42.686;23.352;2023-03-09T13:58:40;3.30;;;1.25;;
41233;SDS011;26968;42.686;23.352;2023-03-09T14:01:17;5.47;;;1.27;;
41233;SDS011;26968;42.686;23.352;2023-03-09T14:03:52;5.82;;;1.23;;
41233;SDS011;26968;42.686;23.352;2023-03-09T14:06:35;4.65;;;1.48;;
41233;SDS011;26968;42.686;23.352;2023-03-09T14:09:23;4.50;;;1.25;;
41233;SDS011;26968;42.686;23.352;2023-03-09T14:12:14;3.90;;;1.27;;
41233;SDS011;26968;42.686;23.352;2023-03-09T14:14:59;6.93;;;1.60;;
41233;SDS011;26968;42.686;23.352;2023-03-09T14:17:27;4.50;;;1.33;;
41233;SDS011;26968;42.686;23.352;2023-03-09T14:19:54;4.90;;;0.85;;
41233;SDS011;26968;42.686;23.352;2023-03-09T14:22:25;5.15;;;1.73;;
41233;SDS011;26968;42.686;23.352;2023-03-09T14:24:54;6.55;;;1.98;;
41233;SDS011;26968;42.686;23.352;2023-03-09T14:27:31;6.85;;;1.65;;
41233;SDS011;26968;42.686;23.352;2023-03-09T14:31:00;1.88;;;1.23;;
41233;SDS011;26968;42.686;23.352;2023-03-09T14:32:56;7.55;;;1.23;;
41233;SDS011;26968;42.686;23.352;2023-03-09T14:35:43;4.20;;;1.25;;
41233;SDS011;26968;42.686;23.352;2023-03-09T14:38:15;4.07;;;1.10;;
41233;SDS011;26968;42.686;23.352;2023-03-09T14:40:47;2.20;;;1.25;;
41233;SDS011;26968;42.686;23.352;2023-03-09T14:45:50;1.75;;;1.20;;
41233;SDS011;26968;42.686;23.352;2023-03-09T14:48:16;5.97;;;2.08;;
41233;SDS011;26968;42.686;23.352;2023-03-09T14:50:43;5.25;;;1.70;;
41233;SDS011;26968;42.686;23.352;2023-03-09T14:53:12;11.82;;;1.88;;
41233;SDS011;26968;42.686;23.352;2023-03-09T14:55:39;2.72;;;1.63;;
41233;SDS011;26968;42.686;23.352;2023-03-09T14:58:11;2.75;;;1.50;;
41233;SDS011;26968;42.686;23.352;2023-03-09T15:00:38;2.25;;;1.40;;
41233;SDS011;26968;42.686;23.352;2023-03-09T15:03:08;5.68;;;1.80;;
41233;SDS011;26968;42.686;23.352;2023-03-09T15:05:33;3.08;;;1.52;;
41233;SDS011;26968;42.686;23.352;2023-03-09T15:07:58;11.32;;;1.85;;
41233;SDS011;26968;42.686;23.352;2023-03-09T15:10:25;7.07;;;1.98;;
41233;SDS011;26968;42.686;23.352;2023-03-09T15:12:52;2.50;;;1.73;;
41233;SDS011;26968;42.686;23.352;2023-03-09T15:17:49;6.65;;;1.55;;
41233;SDS011;26968;42.686;23.352;2023-03-09T15:20:18;6.13;;;2.22;;
41233;SDS011;26968;42.686;23.352;2023-03-09T15:22:46;4.30;;;1.40;;
41233;SDS011;26968;42.686;23.352;2023-03-09T15:25:15;6.00;;;2.08;;
41233;SDS011;26968;42.686;23.352;2023-03-09T15:27:42;6.20;;;2.40;;
41233;SDS011;26968;42.686;23.352;2023-03-09T15:30:12;3.33;;;1.90;;
41233;SDS011;26968;42.686;23.352;2023-03-09T15:32:40;2.90;;;1.70;;
41233;SDS011;26968;42.686;23.352;2023-03-09T15:35:06;7.13;;;2.42;;
41233;SDS011;26968;42.686;23.352;2023-03-09T15:37:36;4.03;;;1.83;;
41233;SDS011;26968;42.686;23.352;2023-03-09T15:40:01;4.88;;;2.35;;
41233;SDS011;26968;42.686;23.352;2023-03-09T15:42:27;5.25;;;2.30;;
41233;SDS011;26968;42.686;23.352;2023-03-09T15:44:53;6.68;;;2.28;;
41233;SDS011;26968;42.686;23.352;2023-03-09T15:47:18;14.18;;;2.58;;
41233;SDS011;26968;42.686;23.352;2023-03-09T15:49:46;7.63;;;2.33;;
41233;SDS011;26968;42.686;23.352;2023-03-09T15:52:12;10.45;;;2.90;;
41233;SDS011;26968;42.686;23.352;2023-03-09T15:54:38;6.63;;;2.35;;
41233;SDS011;26968;42.686;23.352;2023-03-09T15:57:05;7.70;;;2.50;;
41233;SDS011;26968;42.686;23.352;2023-03-09T15:59:30;7.32;;;3.50;;
41233;SDS011;26968;42.686;23.352;2023-03-09T16:01:57;8.60;;;4.13;;
41233;SDS011;26968;42.686;23.352;2023-03-09T16:04:23;17.88;;;6.32;;
41233;SDS011;26968;42.686;23.352;2023-03-09T16:06:49;5.03;;;3.22;;
41233;SDS011;26968;42.686;23.352;2023-03-09T16:09:16;11.20;;;2.60;;
41233;SDS011;26968;42.686;23.352;2023-03-09T16:11:43;6.05;;;2.65;;
41233;SDS011;26968;42.686;23.352;2023-03-09T16:14:10;10.38;;;3.38;;
41233;SDS011;26968;42.686;23.352;2023-03-09T16:16:38;7.85;;;2.72;;
41233;SDS011;26968;42.686;23.352;2023-03-09T16:19:06;9.68;;;2.97;;
41233;SDS011;26968;42.686;23.352;2023-03-09T16:21:33;6.32;;;2.78;;
41233;SDS011;26968;42.686;23.352;2023-03-09T16:24:00;13.23;;;4.18;;
41233;SDS011;26968;42.686;23.352;2023-03-09T16:26:27;7.75;;;3.42;;
41233;SDS011;26968;42.686;23.352;2023-03-09T16:28:56;11.48;;;3.47;;
41233;SDS011;26968;42.686;23.352;2023-03-09T16:31:26;7.93;;;3.50;;